createdAt,value
2022-12-18T00:02:22.935Z,-3.37
2022-12-18T00:05:10.573Z,-3.41
2022-12-18T00:07:57.776Z,-3.49
2022-12-18T00:10:45.870Z,-3.42
2022-12-18T00:13:33.165Z,-3.42
2022-12-18T00:16:22.775Z,-3.44
2022-12-18T00:19:13.002Z,-3.43
2022-12-18T00:22:01.096Z,-3.38
2022-12-18T00:24:48.404Z,-3.38
2022-12-18T00:27:35.625Z,-3.38
2022-12-18T00:30:23.170Z,-3.53
2022-12-18T00:33:10.511Z,-3.46
2022-12-18T00:36:04.171Z,-3.46
2022-12-18T00:38:55.096Z,-3.32
2022-12-18T00:42:13.849Z,-3.31
2022-12-18T00:45:01.421Z,-3.33
2022-12-18T00:47:48.454Z,-3.34
2022-12-18T00:50:39.180Z,-3.30
2022-12-18T00:53:27.770Z,-3.34
2022-12-18T00:56:15.964Z,-3.39
2022-12-18T00:59:03.003Z,-3.42
2022-12-18T01:01:50.275Z,-3.45
2022-12-18T01:04:37.391Z,-3.78
2022-12-18T01:07:24.697Z,-3.55
2022-12-18T01:10:14.397Z,-3.59
2022-12-18T01:13:01.837Z,-3.59
2022-12-18T01:15:51.173Z,-3.60
2022-12-18T01:18:41.302Z,-3.62
2022-12-18T01:21:28.914Z,-3.71
2022-12-18T01:24:16.101Z,-3.68
2022-12-18T01:27:10.942Z,-3.64
2022-12-18T01:30:01.415Z,-3.58
2022-12-18T01:32:51.718Z,-3.54
2022-12-18T01:35:49.450Z,-3.54
2022-12-18T01:38:37.040Z,-3.58
2022-12-18T01:41:27.456Z,-3.58
2022-12-18T01:44:55.923Z,-3.57
2022-12-18T01:47:48.623Z,-3.60
2022-12-18T01:50:41.212Z,-3.69
2022-12-18T01:53:29.962Z,-3.63
2022-12-18T01:56:23.180Z,-3.66
2022-12-18T01:59:13.465Z,-3.68
2022-12-18T02:02:03.449Z,-3.69
2022-12-18T02:04:53.553Z,-3.73
2022-12-18T02:07:48.980Z,-3.79
2022-12-18T02:10:47.812Z,-3.88
2022-12-18T02:13:45.852Z,-3.83
2022-12-18T02:16:42.045Z,-3.90
2022-12-18T02:19:51.698Z,-3.96
2022-12-18T02:22:46.990Z,-3.94
2022-12-18T02:25:50.056Z,-4.03
2022-12-18T02:28:53.202Z,-3.99
2022-12-18T02:31:45.660Z,-4.02
2022-12-18T02:34:37.034Z,-4.09
2022-12-18T02:37:29.581Z,-4.16
2022-12-18T02:40:20.713Z,-4.12
2022-12-18T02:43:13.408Z,-4.13
2022-12-18T02:46:31.410Z,-4.13
2022-12-18T02:49:32.916Z,-4.13
2022-12-18T02:52:30.769Z,-4.16
2022-12-18T02:55:30.868Z,-4.14
2022-12-18T02:58:31.771Z,-4.15
2022-12-18T03:01:36.469Z,-4.17
2022-12-18T03:04:29.141Z,-4.18
2022-12-18T03:07:23.663Z,-4.20
2022-12-18T03:10:18.939Z,-4.19
2022-12-18T03:13:10.195Z,-4.18
2022-12-18T03:16:01.725Z,-4.19
2022-12-18T03:18:54.330Z,-4.17
2022-12-18T03:21:44.786Z,-4.16
2022-12-18T03:24:34.161Z,-4.17
2022-12-18T03:27:25.397Z,-4.12
2022-12-18T03:30:18.358Z,-4.14
2022-12-18T03:33:12.601Z,-4.13
2022-12-18T03:36:07.260Z,-4.09
2022-12-18T03:38:55.054Z,-4.12
2022-12-18T03:41:53.477Z,-4.13
2022-12-18T03:44:56.568Z,-4.18
2022-12-18T03:47:55.076Z,-4.17
2022-12-18T03:50:51.703Z,-4.21
2022-12-18T03:53:50.034Z,-4.19
2022-12-18T03:56:43.012Z,-4.17
2022-12-18T03:59:32.550Z,-4.17
2022-12-18T04:02:21.284Z,-4.19
2022-12-18T04:05:11.959Z,-4.19
2022-12-18T04:08:02.479Z,-4.24
2022-12-18T04:10:51.890Z,-4.26
2022-12-18T04:13:40.968Z,-4.29
2022-12-18T04:16:34.548Z,-4.36
2022-12-18T04:19:24.112Z,-4.36
2022-12-18T04:22:13.499Z,-4.37
2022-12-18T04:25:05.397Z,-4.34
2022-12-18T04:27:59.856Z,-4.34
2022-12-18T04:30:50.048Z,-4.37
2022-12-18T04:33:40.570Z,-4.39
2022-12-18T04:36:28.892Z,-4.44
2022-12-18T04:39:24.125Z,-4.45
2022-12-18T04:42:14.851Z,-4.47
2022-12-18T04:45:03.333Z,-4.55
2022-12-18T04:47:50.598Z,-4.67
2022-12-18T04:50:37.770Z,-4.62
2022-12-18T04:53:25.018Z,-4.67
2022-12-18T04:56:14.896Z,-4.68
2022-12-18T04:59:02.212Z,-4.71
2022-12-18T05:01:50.811Z,-4.75
2022-12-18T05:04:37.922Z,-4.76
2022-12-18T05:07:25.231Z,-4.77
2022-12-18T05:10:12.557Z,-4.79
2022-12-18T05:13:02.340Z,-4.77
2022-12-18T05:15:54.076Z,-4.81
2022-12-18T05:18:42.976Z,-4.69
2022-12-18T05:21:30.070Z,-4.68
2022-12-18T05:24:17.564Z,-4.65
2022-12-18T05:27:04.885Z,-4.62
2022-12-18T05:29:52.208Z,-4.62
2022-12-18T05:32:40.152Z,-4.58
2022-12-18T05:35:28.434Z,-4.60
2022-12-18T05:38:19.152Z,-4.58
2022-12-18T05:41:07.091Z,-4.80
2022-12-18T05:43:54.285Z,-4.57
2022-12-18T05:46:44.676Z,-4.57
2022-12-18T05:49:31.919Z,-4.59
2022-12-18T05:52:23.226Z,-4.56
2022-12-18T05:55:10.356Z,-4.56
2022-12-18T05:57:57.664Z,-4.58
2022-12-18T06:00:47.589Z,-4.90
2022-12-18T06:03:34.605Z,-4.55
2022-12-18T06:06:23.709Z,-4.56
2022-12-18T06:09:12.844Z,-4.57
2022-12-18T06:12:00.046Z,-4.63
2022-12-18T06:14:47.079Z,-4.74
2022-12-18T06:17:35.344Z,-4.79
2022-12-18T06:20:22.759Z,-4.85
2022-12-18T06:23:10.609Z,-4.88
2022-12-18T06:25:59.358Z,-4.90
2022-12-18T06:28:48.209Z,-5.30
2022-12-18T06:31:35.639Z,-4.97
2022-12-18T06:34:22.582Z,-4.96
2022-12-18T06:37:09.868Z,-4.95
2022-12-18T06:39:57.512Z,-4.95
2022-12-18T06:42:46.344Z,-4.93
2022-12-18T06:45:33.706Z,-4.94
2022-12-18T06:48:20.911Z,-4.92
2022-12-18T06:51:08.396Z,-4.93
2022-12-18T06:53:55.397Z,-4.90
2022-12-18T06:56:42.564Z,-4.86
2022-12-18T06:59:30.936Z,-4.80
2022-12-18T07:02:20.476Z,-4.76
2022-12-18T07:05:10.909Z,-4.72
2022-12-18T07:08:01.463Z,-4.94
2022-12-18T07:10:54.418Z,-4.61
2022-12-18T07:13:43.616Z,-4.62
2022-12-18T07:16:32.355Z,-4.61
2022-12-18T07:19:20.202Z,-4.60
2022-12-18T07:22:12.748Z,-4.65
2022-12-18T07:24:59.806Z,-4.63
2022-12-18T07:27:54.542Z,-4.64
2022-12-18T07:30:42.169Z,-4.63
2022-12-18T07:33:30.876Z,-4.65
2022-12-18T07:36:18.143Z,-5.01
2022-12-18T07:39:05.152Z,-4.74
2022-12-18T07:42:06.386Z,-4.74
2022-12-18T07:44:56.451Z,-4.73
2022-12-18T07:47:43.949Z,-4.73
2022-12-18T07:50:32.733Z,-4.73
2022-12-18T07:53:19.544Z,-4.76
2022-12-18T07:59:16.234Z,-4.81
2022-12-18T08:02:03.600Z,-4.81
2022-12-18T08:04:50.787Z,-4.78
2022-12-18T08:07:39.363Z,-4.75
2022-12-18T08:10:26.567Z,-4.75
2022-12-18T08:13:13.807Z,-4.73
2022-12-18T08:16:03.299Z,-4.71
2022-12-18T08:18:53.318Z,-4.73
2022-12-18T08:21:43.634Z,-4.69
2022-12-18T08:24:32.297Z,-4.68
2022-12-18T08:27:34.915Z,-4.66
2022-12-18T08:30:22.264Z,-4.65
2022-12-18T08:33:10.599Z,-4.63
2022-12-18T08:35:59.969Z,-4.62
2022-12-18T08:38:47.584Z,-4.83
2022-12-18T08:41:35.876Z,-4.58
2022-12-18T08:44:42.592Z,-4.57
2022-12-18T08:47:33.264Z,-4.51
2022-12-18T08:50:20.950Z,-4.48
2022-12-18T08:53:10.607Z,-4.87
2022-12-18T08:55:58.874Z,-4.41
2022-12-18T08:58:47.493Z,-4.37
2022-12-18T09:01:34.664Z,-4.32
2022-12-18T09:04:23.379Z,-4.26
2022-12-18T09:07:10.441Z,-4.24
2022-12-18T09:09:57.472Z,-4.19
2022-12-18T09:12:44.540Z,-4.16
2022-12-18T09:15:33.235Z,-4.08
2022-12-18T09:18:21.660Z,-4.02
2022-12-18T09:21:13.523Z,-3.97
2022-12-18T09:27:40.386Z,-3.76
2022-12-18T09:30:12.497Z,-3.67
2022-12-18T09:32:42.879Z,-3.59
2022-12-18T09:35:13.299Z,-3.49
2022-12-18T09:37:43.908Z,-3.41
2022-12-18T09:40:18.464Z,-3.35
2022-12-18T09:42:57.086Z,-3.31
2022-12-18T09:45:28.247Z,-3.25
2022-12-18T09:47:59.452Z,-3.14
2022-12-18T09:50:38.080Z,-3.11
2022-12-18T09:53:15.560Z,-3.02
2022-12-18T09:55:49.026Z,-3.04
2022-12-18T09:58:34.230Z,-2.83
2022-12-18T10:01:04.837Z,-2.72
2022-12-18T10:03:36.055Z,-2.62
2022-12-18T10:06:11.740Z,-2.53
2022-12-18T10:08:49.861Z,-2.53
2022-12-18T10:11:36.389Z,-2.41
2022-12-18T10:14:17.136Z,-2.36
2022-12-18T10:16:57.593Z,-2.29
2022-12-18T10:19:40.706Z,-2.18
2022-12-18T10:22:22.856Z,-2.09
2022-12-18T10:25:02.767Z,-1.97
2022-12-18T10:27:34.465Z,-1.94
2022-12-18T10:30:16.735Z,-1.91
2022-12-18T10:32:47.294Z,-1.82
2022-12-18T10:35:22.813Z,-1.80
2022-12-18T10:38:27.710Z,-1.70
2022-12-18T10:41:01.469Z,-1.62
2022-12-18T10:43:33.844Z,-1.65
2022-12-18T10:46:17.602Z,-1.62
2022-12-18T10:48:58.459Z,-1.73
2022-12-18T10:51:32.503Z,-1.63
2022-12-18T10:54:06.212Z,-1.53
2022-12-18T10:56:39.240Z,-1.47
2022-12-18T10:59:12.398Z,-1.45
2022-12-18T11:01:58.609Z,-1.36
2022-12-18T11:04:32.407Z,-1.31
2022-12-18T11:07:05.898Z,-1.26
2022-12-18T11:09:38.031Z,-1.17
2022-12-18T11:12:19.387Z,-1.07
2022-12-18T11:14:52.780Z,-1.08
2022-12-18T11:17:32.072Z,-0.96
2022-12-18T11:20:05.420Z,-0.92
2022-12-18T11:22:39.243Z,-0.87
2022-12-18T11:25:36.943Z,-0.79
2022-12-18T11:28:10.100Z,-0.73
2022-12-18T11:30:41.538Z,-0.68
2022-12-18T11:33:21.739Z,-0.64
2022-12-18T11:35:56.744Z,-0.57
2022-12-18T11:38:29.890Z,-0.64
2022-12-18T11:41:05.790Z,-0.55
2022-12-18T11:43:42.347Z,-0.48
2022-12-18T11:46:20.053Z,-0.52
2022-12-18T11:49:02.147Z,-0.63
2022-12-18T11:51:37.753Z,-0.62
2022-12-18T11:54:16.146Z,-0.63
2022-12-18T11:56:51.967Z,-0.61
2022-12-18T11:59:35.791Z,-0.56
2022-12-18T12:02:21.541Z,-0.50
2022-12-18T12:05:29.040Z,-0.44
2022-12-18T12:08:05.791Z,-0.43
2022-12-18T12:10:46.181Z,-0.42
2022-12-18T12:13:32.630Z,-0.39
2022-12-18T12:16:14.495Z,-0.42
2022-12-18T12:18:59.107Z,-0.44
2022-12-18T12:21:42.512Z,-0.48
2022-12-18T12:24:33.331Z,-0.54
2022-12-18T12:27:10.628Z,-0.56
2022-12-18T12:29:52.197Z,-0.53
2022-12-18T12:32:37.254Z,-0.52
2022-12-18T12:35:19.094Z,-0.45
2022-12-18T12:38:01.457Z,-0.42
2022-12-18T12:40:52.375Z,-0.46
2022-12-18T12:43:27.122Z,-0.43
2022-12-18T12:46:01.509Z,-0.45
2022-12-18T12:48:40.483Z,-0.48
2022-12-18T12:51:16.454Z,-0.52
2022-12-18T12:53:50.226Z,-0.57
2022-12-18T12:56:23.358Z,-0.45
2022-12-18T12:59:05.090Z,-0.41
2022-12-18T13:01:42.634Z,-0.40
2022-12-18T13:04:25.759Z,-0.36
2022-12-18T13:07:03.995Z,-0.34
2022-12-18T13:10:44.603Z,-0.34
2022-12-18T13:13:16.567Z,-0.35
2022-12-18T13:16:08.652Z,-0.39
2022-12-18T13:18:39.858Z,-0.49
2022-12-18T13:21:26.070Z,-0.56
2022-12-18T13:23:57.265Z,-0.56
2022-12-18T13:26:39.321Z,-0.54
2022-12-18T13:29:09.823Z,-0.58
2022-12-18T13:32:04.338Z,-0.51
2022-12-18T13:34:37.908Z,-0.46
2022-12-18T13:37:38.881Z,-0.48
2022-12-18T13:40:39.590Z,-0.58
2022-12-18T13:43:27.778Z,-0.61
2022-12-18T13:46:20.577Z,-0.66
2022-12-18T13:49:00.824Z,-0.70
2022-12-18T13:51:34.615Z,-0.72
2022-12-18T13:54:10.002Z,-0.77
2022-12-18T13:56:47.898Z,-0.80
2022-12-18T13:59:25.880Z,-0.88
2022-12-18T14:01:59.130Z,-0.93
2022-12-18T14:04:31.905Z,-1.00
2022-12-18T14:07:07.222Z,-1.07
2022-12-18T14:09:41.240Z,-1.12
2022-12-18T14:12:32.299Z,-1.20
2022-12-18T14:15:10.321Z,-1.26
2022-12-18T14:17:40.782Z,-1.42
2022-12-18T14:20:17.475Z,-1.44
2022-12-18T14:22:51.006Z,-1.46
2022-12-18T14:25:24.066Z,-1.56
2022-12-18T14:27:57.650Z,-1.59
2022-12-18T14:30:40.730Z,-1.61
2022-12-18T14:33:15.308Z,-1.65
2022-12-18T14:35:55.655Z,-1.71
2022-12-18T14:38:33.488Z,-1.79
2022-12-18T14:41:05.559Z,-1.83
2022-12-18T14:43:38.113Z,-1.94
2022-12-18T14:46:31.832Z,-1.96
2022-12-18T14:49:03.712Z,-2.28
2022-12-18T14:51:36.787Z,-2.08
2022-12-18T14:54:10.959Z,-2.08
2022-12-18T14:56:49.074Z,-2.07
2022-12-18T14:59:24.648Z,-2.12
2022-12-18T15:02:08.865Z,-2.12
2022-12-18T15:04:41.711Z,-2.12
2022-12-18T15:07:17.974Z,-2.14
2022-12-18T15:10:07.511Z,-2.17
2022-12-18T15:12:42.857Z,-2.19
2022-12-18T15:15:43.485Z,-2.21
2022-12-18T15:18:21.185Z,-2.14
2022-12-18T15:20:54.169Z,-2.15
2022-12-18T15:23:27.806Z,-2.22
2022-12-18T15:26:03.141Z,-2.13
2022-12-18T15:28:37.513Z,-2.10
2022-12-18T15:31:26.386Z,-2.07
2022-12-18T15:34:15.568Z,-2.07
2022-12-18T15:36:46.297Z,-2.09
2022-12-18T15:39:17.913Z,-2.11
2022-12-18T15:42:00.978Z,-2.13
2022-12-18T15:44:31.679Z,-2.16
2022-12-18T15:47:02.545Z,-2.20
2022-12-18T15:49:35.793Z,-2.21
2022-12-18T15:52:07.291Z,-2.25
2022-12-18T15:54:49.901Z,-2.32
2022-12-18T15:57:29.452Z,-2.32
2022-12-18T16:00:00.276Z,-2.47
2022-12-18T16:02:31.609Z,-2.34
2022-12-18T16:05:05.872Z,-2.39
2022-12-18T16:07:36.211Z,-2.35
2022-12-18T16:10:06.998Z,-2.32
2022-12-18T16:12:37.544Z,-2.31
2022-12-18T16:15:09.629Z,-2.27
2022-12-18T16:17:40.092Z,-2.20
2022-12-18T16:20:16.866Z,-2.14
2022-12-18T16:22:48.534Z,-2.11
2022-12-18T16:25:23.057Z,-2.11
2022-12-18T16:27:53.531Z,-2.13
2022-12-18T16:30:27.354Z,-2.13
2022-12-18T16:32:59.013Z,-2.10
2022-12-18T16:35:32.159Z,-2.10
2022-12-18T16:38:02.530Z,-2.08
2022-12-18T16:40:56.057Z,-2.08
2022-12-18T16:43:26.445Z,-2.03
2022-12-18T16:45:59.670Z,-2.00
2022-12-18T16:48:30.201Z,-1.98
2022-12-18T16:51:08.379Z,-2.09
2022-12-18T16:53:39.331Z,-1.95
2022-12-18T16:56:10.581Z,-1.94
2022-12-18T16:58:41.005Z,-1.93
2022-12-18T17:01:15.513Z,-1.88
2022-12-18T17:03:46.301Z,-1.86
2022-12-18T17:06:20.322Z,-1.91
2022-12-18T17:08:50.972Z,-1.83
2022-12-18T17:11:21.556Z,-1.86
2022-12-18T17:13:51.982Z,-1.77
2022-12-18T17:16:22.688Z,-1.72
2022-12-18T17:18:53.199Z,-1.71
2022-12-18T17:21:26.431Z,-1.67
2022-12-18T17:23:56.810Z,-1.63
2022-12-18T17:26:27.343Z,-1.60
2022-12-18T17:29:00.291Z,-1.55
2022-12-18T17:31:32.418Z,-1.52
2022-12-18T17:34:04.878Z,-1.47
2022-12-18T17:36:37.931Z,-1.44
2022-12-18T17:39:09.171Z,-1.44
2022-12-18T17:41:39.695Z,-1.38
2022-12-18T17:44:10.113Z,-1.36
2022-12-18T17:46:40.869Z,-1.36
2022-12-18T17:49:11.420Z,-1.33
2022-12-18T17:51:45.143Z,-1.35
2022-12-18T17:54:15.564Z,-1.32
2022-12-18T17:56:46.217Z,-1.34
2022-12-18T17:59:17.416Z,-1.34
2022-12-18T18:01:49.577Z,-1.36
2022-12-18T18:04:20.223Z,-1.43
2022-12-18T18:06:53.658Z,-1.38
2022-12-18T18:09:24.272Z,-1.64
2022-12-18T18:12:07.046Z,-1.48
2022-12-18T18:14:37.698Z,-1.52
2022-12-18T18:17:08.453Z,-1.63
2022-12-18T18:19:39.328Z,-1.53
2022-12-18T18:22:13.454Z,-1.56
2022-12-18T18:24:48.567Z,-1.53
2022-12-18T18:27:19.516Z,-1.50
2022-12-18T18:29:50.124Z,-1.48
2022-12-18T18:32:20.794Z,-1.47
2022-12-18T18:34:51.242Z,-1.45
2022-12-18T18:37:25.105Z,-1.43
2022-12-18T18:39:56.933Z,-1.43
2022-12-18T18:42:27.437Z,-1.38
2022-12-18T18:44:58.153Z,-1.42
2022-12-18T18:47:32.195Z,-1.30
2022-12-18T18:50:02.965Z,-1.28
2022-12-18T18:52:36.054Z,-1.22
2022-12-18T18:55:20.986Z,-1.19
2022-12-18T18:57:57.002Z,-1.16
2022-12-18T19:00:27.951Z,-1.06
2022-12-18T19:03:00.800Z,-1.02
2022-12-18T19:05:34.070Z,-1.06
2022-12-18T19:08:07.838Z,-1.03
2022-12-18T19:10:42.861Z,-1.04
2022-12-18T19:13:21.961Z,-1.08
2022-12-18T19:15:52.570Z,-1.02
2022-12-18T19:18:23.067Z,-0.99
2022-12-18T19:21:05.232Z,-0.97
2022-12-18T19:23:38.345Z,-0.93
2022-12-18T19:26:28.313Z,-0.91
2022-12-18T19:29:04.242Z,-0.91
2022-12-18T19:31:36.440Z,-0.91
2022-12-18T19:34:09.638Z,-0.87
2022-12-18T19:36:42.269Z,-0.83
2022-12-18T19:39:17.630Z,-0.82
2022-12-18T19:41:48.243Z,-0.95
2022-12-18T19:44:20.406Z,-0.77
2022-12-18T19:46:53.461Z,-0.72
2022-12-18T19:49:26.758Z,-0.66
2022-12-18T19:51:57.556Z,-0.63
2022-12-18T19:54:31.086Z,-0.58
2022-12-18T19:57:01.540Z,-0.48
2022-12-18T19:59:31.907Z,-0.43
2022-12-18T20:02:02.722Z,-0.36
2022-12-18T20:04:33.462Z,-0.24
2022-12-18T20:07:03.928Z,-0.18
2022-12-18T20:09:37.015Z,-0.12
2022-12-18T20:12:08.353Z,-0.08
2022-12-18T20:14:41.320Z,-0.05
2022-12-18T20:17:12.036Z,-0.03
2022-12-18T20:19:42.774Z,-0.01
2022-12-18T20:22:14.065Z,-0.01
2022-12-18T20:24:47.526Z,-0.03
2022-12-18T20:27:20.334Z,-0.01
2022-12-18T20:29:52.653Z,-0.02
2022-12-18T20:32:23.261Z,0.00
2022-12-18T20:34:53.889Z,0.03
2022-12-18T20:37:24.854Z,0.06
2022-12-18T20:39:59.595Z,0.12
2022-12-18T20:42:30.373Z,0.10
2022-12-18T20:45:01.167Z,0.11
2022-12-18T20:47:31.595Z,0.09
2022-12-18T20:50:02.181Z,0.09
2022-12-18T20:52:32.614Z,0.09
2022-12-18T20:55:09.465Z,0.11
2022-12-18T20:57:39.972Z,-0.05
2022-12-18T21:00:12.942Z,0.07
2022-12-18T21:02:47.100Z,0.15
2022-12-18T21:05:17.898Z,0.19
2022-12-18T21:07:48.427Z,0.20
2022-12-18T21:10:24.780Z,0.19
2022-12-18T21:13:01.843Z,0.28
2022-12-18T21:15:36.313Z,0.28
2022-12-18T21:18:09.823Z,0.09
2022-12-18T21:20:40.703Z,0.31
2022-12-18T21:23:16.199Z,0.34
2022-12-18T21:25:51.884Z,0.35
2022-12-18T21:28:26.694Z,0.38
2022-12-18T21:30:57.484Z,0.33
2022-12-18T21:33:31.027Z,0.41
2022-12-18T21:36:03.475Z,0.35
2022-12-18T21:38:34.800Z,0.36
2022-12-18T21:41:34.461Z,0.23
2022-12-18T21:44:08.244Z,0.26
2022-12-18T21:46:40.380Z,0.34
2022-12-18T21:49:15.332Z,0.35
2022-12-18T21:51:46.245Z,0.40
2022-12-18T21:54:16.759Z,0.45
2022-12-18T21:56:52.102Z,0.44
2022-12-18T21:59:25.093Z,0.35
2022-12-18T22:01:59.908Z,0.35
2022-12-18T22:04:31.025Z,0.35
2022-12-18T22:07:05.193Z,0.32
2022-12-18T22:09:35.663Z,0.27
2022-12-18T22:12:09.692Z,0.25
2022-12-18T22:14:40.307Z,0.24
2022-12-18T22:17:11.229Z,0.22
2022-12-18T22:19:43.572Z,0.23
2022-12-18T22:22:14.866Z,0.25
2022-12-18T22:24:45.368Z,0.27
2022-12-18T22:27:18.460Z,0.26
2022-12-18T22:30:01.324Z,0.30
2022-12-18T22:32:31.855Z,0.38
2022-12-18T22:35:15.571Z,0.44
2022-12-18T22:37:47.939Z,0.41
2022-12-18T22:40:25.449Z,0.36
2022-12-18T22:43:00.089Z,0.45
2022-12-18T22:45:33.809Z,0.42
2022-12-18T22:48:13.222Z,0.42
2022-12-18T22:50:44.652Z,0.37
2022-12-18T22:53:15.036Z,0.36
2022-12-18T22:55:45.570Z,0.34
2022-12-18T22:58:18.944Z,0.35
2022-12-18T23:00:49.672Z,0.37
2022-12-18T23:03:20.173Z,0.41
2022-12-18T23:05:55.414Z,0.41
2022-12-18T23:08:28.221Z,0.37
2022-12-18T23:11:03.241Z,0.42
2022-12-18T23:13:39.429Z,0.43
2022-12-18T23:16:14.632Z,0.44
2022-12-18T23:18:45.414Z,0.47
2022-12-18T23:21:19.663Z,0.33
2022-12-18T23:23:51.141Z,0.35
2022-12-18T23:26:26.337Z,0.50
2022-12-18T23:29:04.691Z,0.53
2022-12-18T23:31:37.158Z,0.56
2022-12-18T23:34:08.896Z,0.55
2022-12-18T23:36:45.445Z,0.57
2022-12-18T23:39:28.958Z,0.51
2022-12-18T23:42:01.020Z,0.50
2022-12-18T23:44:34.133Z,0.48
2022-12-18T23:47:08.118Z,0.47
2022-12-18T23:49:38.844Z,0.47
2022-12-18T23:52:12.294Z,0.46
2022-12-18T23:54:42.733Z,0.48
2022-12-18T23:57:13.365Z,0.50
2022-12-18T23:59:46.485Z,0.50
